createdAt,value
2023-01-20T00:00:33.551Z,26.37
2023-01-20T00:03:03.010Z,20.33
2023-01-20T00:05:30.617Z,20.03
2023-01-20T00:07:58.259Z,19.50
2023-01-20T00:10:25.888Z,17.83
2023-01-20T00:12:56.810Z,21.73
2023-01-20T00:15:24.389Z,20.20
2023-01-20T00:17:52.019Z,21.00
2023-01-20T00:20:19.694Z,22.23
2023-01-20T00:22:47.203Z,21.60
2023-01-20T00:25:15.343Z,22.40
2023-01-20T00:27:43.074Z,26.73
2023-01-20T00:30:13.258Z,23.10
2023-01-20T00:32:44.669Z,21.33
2023-01-20T00:35:12.624Z,18.03
2023-01-20T00:37:40.479Z,25.77
2023-01-20T00:40:09.172Z,27.23
2023-01-20T00:42:36.796Z,27.83
2023-01-20T00:45:04.836Z,24.20
2023-01-20T00:47:33.683Z,23.70
2023-01-20T00:50:16.871Z,23.73
2023-01-20T00:52:44.305Z,25.63
2023-01-20T00:55:12.451Z,26.40
2023-01-20T00:57:40.404Z,25.30
2023-01-20T01:00:09.148Z,29.93
2023-01-20T01:02:40.436Z,28.27
2023-01-20T01:05:08.328Z,28.50
2023-01-20T01:07:35.780Z,41.33
2023-01-20T01:10:03.265Z,34.93
2023-01-20T01:12:30.737Z,31.33
2023-01-20T01:14:58.220Z,29.07
2023-01-20T01:17:25.714Z,27.43
2023-01-20T01:19:54.710Z,32.80
2023-01-20T01:22:22.849Z,33.43
2023-01-20T01:24:50.313Z,32.67
2023-01-20T01:27:17.885Z,29.57
2023-01-20T01:29:45.319Z,31.60
2023-01-20T01:32:12.817Z,27.40
2023-01-20T01:34:40.276Z,30.57
2023-01-20T01:37:09.093Z,27.00
2023-01-20T01:39:36.550Z,25.67
2023-01-20T01:42:04.052Z,32.40
2023-01-20T01:44:32.853Z,33.70
2023-01-20T01:47:00.316Z,27.77
2023-01-20T01:49:29.591Z,25.10
2023-01-20T01:52:00.029Z,28.87
2023-01-20T01:54:32.281Z,33.13
2023-01-20T01:57:00.456Z,24.00
2023-01-20T01:59:28.212Z,32.03
2023-01-20T02:01:55.982Z,25.30
2023-01-20T02:04:25.107Z,25.97
2023-01-20T02:06:55.566Z,36.60
2023-01-20T02:09:23.466Z,24.53
2023-01-20T02:11:54.669Z,26.20
2023-01-20T02:14:24.185Z,32.47
2023-01-20T02:16:59.277Z,25.00
2023-01-20T02:19:59.555Z,32.60
2023-01-20T02:22:34.230Z,26.13
2023-01-20T02:25:21.324Z,35.20
2023-01-20T02:28:19.345Z,32.13
2023-01-20T02:30:58.406Z,26.57
2023-01-20T02:33:29.516Z,33.00
2023-01-20T02:36:00.526Z,27.53
2023-01-20T02:38:32.737Z,25.00
2023-01-20T02:41:08.393Z,21.80
2023-01-20T02:43:39.818Z,28.35
2023-01-20T02:46:12.885Z,25.07
2023-01-20T02:48:44.268Z,28.57
2023-01-20T02:51:14.768Z,26.83
2023-01-20T02:53:49.294Z,28.20
2023-01-20T02:56:17.893Z,27.77
2023-01-20T02:58:50.388Z,24.60
2023-01-20T03:01:21.791Z,27.93
2023-01-20T03:03:53.100Z,26.13
2023-01-20T03:06:22.781Z,27.30
2023-01-20T03:08:52.401Z,25.35
2023-01-20T03:11:20.250Z,34.27
2023-01-20T03:13:51.749Z,23.70
2023-01-20T03:16:21.830Z,29.63
2023-01-20T03:18:51.147Z,28.53
2023-01-20T03:21:19.286Z,35.00
2023-01-20T03:23:49.139Z,24.23
2023-01-20T03:26:18.389Z,24.57
2023-01-20T03:28:46.962Z,25.80
2023-01-20T03:31:17.112Z,26.83
2023-01-20T03:33:45.530Z,29.40
2023-01-20T03:36:16.030Z,27.20
2023-01-20T03:38:43.749Z,22.53
2023-01-20T03:41:17.651Z,21.17
2023-01-20T03:43:49.219Z,24.02
2023-01-20T03:46:21.740Z,28.47
2023-01-20T03:48:53.690Z,28.10
2023-01-20T03:51:26.888Z,26.07
2023-01-20T03:53:57.635Z,23.63
2023-01-20T03:56:29.276Z,27.67
2023-01-20T03:58:59.057Z,28.80
2023-01-20T04:01:31.605Z,25.27
2023-01-20T04:04:00.269Z,27.90
2023-01-20T04:06:30.035Z,27.90
2023-01-20T04:09:01.554Z,29.47
2023-01-20T04:11:29.928Z,23.90
2023-01-20T04:13:57.622Z,27.50
2023-01-20T04:16:26.181Z,22.00
2023-01-20T04:18:54.377Z,23.00
2023-01-20T04:21:25.634Z,20.23
2023-01-20T04:23:57.271Z,26.00
2023-01-20T04:26:24.733Z,28.33
2023-01-20T04:28:52.230Z,21.03
2023-01-20T04:31:30.209Z,24.80
2023-01-20T04:33:58.270Z,25.30
2023-01-20T04:36:25.944Z,22.70
2023-01-20T04:38:54.861Z,25.23
2023-01-20T04:41:22.320Z,22.83
2023-01-20T04:43:49.842Z,23.47
2023-01-20T04:46:17.447Z,22.30
2023-01-20T04:48:45.924Z,21.03
2023-01-20T04:51:13.794Z,20.23
2023-01-20T04:53:41.339Z,25.17
2023-01-20T04:56:13.296Z,22.33
2023-01-20T04:58:41.099Z,20.40
2023-01-20T05:01:08.733Z,18.50
2023-01-20T05:03:36.324Z,19.50
2023-01-20T05:06:04.045Z,22.07
2023-01-20T05:08:31.567Z,20.45
2023-01-20T05:10:59.279Z,22.33
2023-01-20T05:13:28.113Z,24.77
2023-01-20T05:15:55.865Z,29.27
2023-01-20T05:18:23.360Z,20.17
2023-01-20T05:20:51.317Z,21.70
2023-01-20T05:23:18.803Z,23.63
2023-01-20T05:25:51.083Z,23.27
2023-01-20T05:28:18.603Z,25.10
2023-01-20T05:30:48.462Z,21.40
2023-01-20T05:33:16.028Z,29.58
2023-01-20T05:35:43.573Z,24.07
2023-01-20T05:38:11.084Z,23.10
2023-01-20T05:40:38.570Z,24.17
2023-01-20T05:43:06.115Z,18.97
2023-01-20T05:45:33.669Z,19.63
2023-01-20T05:48:03.124Z,22.65
2023-01-20T05:50:30.782Z,26.13
2023-01-20T05:52:58.239Z,26.05
2023-01-20T05:55:25.762Z,26.53
2023-01-20T05:57:53.228Z,20.60
2023-01-20T06:00:21.503Z,22.90
2023-01-20T06:02:49.093Z,27.63
2023-01-20T06:05:18.349Z,29.23
2023-01-20T06:07:45.873Z,23.67
2023-01-20T06:10:13.646Z,19.73
2023-01-20T06:12:41.201Z,27.95
2023-01-20T06:15:09.552Z,28.03
2023-01-20T06:17:37.070Z,25.77
2023-01-20T06:20:06.226Z,22.20
2023-01-20T06:22:35.073Z,22.07
2023-01-20T06:25:02.677Z,24.75
2023-01-20T06:27:30.182Z,28.30
2023-01-20T06:29:57.704Z,26.70
2023-01-20T06:32:25.218Z,26.43
2023-01-20T06:34:53.301Z,26.17
2023-01-20T06:37:20.861Z,26.20
2023-01-20T06:39:49.697Z,26.38
2023-01-20T06:42:17.157Z,29.57
2023-01-20T06:44:44.889Z,23.17
2023-01-20T06:47:12.391Z,26.43
2023-01-20T06:49:39.969Z,25.77
2023-01-20T06:52:08.261Z,26.13
2023-01-20T06:54:35.804Z,27.43
2023-01-20T06:57:04.872Z,24.48
2023-01-20T06:59:32.364Z,26.30
2023-01-20T07:01:59.902Z,31.30
2023-01-20T07:04:27.452Z,31.27
2023-01-20T07:06:54.912Z,30.10
2023-01-20T07:09:22.458Z,29.70
2023-01-20T07:11:49.938Z,24.77
2023-01-20T07:14:18.750Z,22.00
2023-01-20T07:16:47.481Z,25.77
2023-01-20T07:19:15.096Z,27.17
2023-01-20T07:21:42.569Z,32.22
2023-01-20T07:24:10.498Z,26.95
2023-01-20T07:26:37.973Z,26.17
2023-01-20T07:29:05.473Z,23.40
2023-01-20T07:31:34.422Z,26.80
2023-01-20T07:34:02.038Z,26.23
2023-01-20T07:36:29.576Z,26.40
2023-01-20T07:38:57.070Z,20.95
2023-01-20T07:41:24.564Z,26.80
2023-01-20T07:44:15.936Z,26.70
2023-01-20T07:46:44.855Z,20.20
2023-01-20T07:49:12.787Z,24.03
2023-01-20T07:51:40.323Z,21.70
2023-01-20T07:54:09.271Z,22.50
2023-01-20T07:56:36.748Z,29.15
2023-01-20T07:59:04.275Z,23.75
2023-01-20T08:01:33.172Z,18.77
2023-01-20T08:04:02.058Z,24.03
2023-01-20T08:06:30.299Z,23.35
2023-01-20T08:09:00.865Z,26.20
2023-01-20T08:11:28.553Z,20.80
2023-01-20T08:13:56.174Z,28.80
2023-01-20T08:16:24.009Z,27.97
2023-01-20T08:18:54.053Z,30.13
2023-01-20T08:21:24.494Z,24.92
2023-01-20T08:23:52.046Z,24.63
2023-01-20T08:26:20.366Z,29.23
2023-01-20T08:28:48.387Z,25.90
2023-01-20T08:31:17.861Z,25.30
2023-01-20T08:33:45.867Z,24.80
2023-01-20T08:36:15.251Z,29.67
2023-01-20T08:38:44.336Z,27.17
2023-01-20T08:41:13.743Z,32.23
2023-01-20T08:43:41.310Z,31.10
2023-01-20T08:46:10.332Z,40.70
2023-01-20T08:48:39.149Z,31.43
2023-01-20T08:51:08.686Z,33.20
2023-01-20T08:53:36.487Z,38.03
2023-01-20T08:56:05.739Z,29.93
2023-01-20T08:58:33.550Z,28.30
2023-01-20T09:01:01.312Z,35.77
2023-01-20T09:03:29.026Z,25.13
2023-01-20T09:05:59.221Z,28.27
2023-01-20T09:08:27.311Z,31.05
2023-01-20T09:10:57.381Z,28.65
2023-01-20T09:13:26.202Z,28.17
2023-01-20T09:15:53.890Z,35.57
2023-01-20T09:18:21.407Z,38.50
2023-01-20T09:20:48.862Z,40.17
2023-01-20T09:23:16.375Z,38.13
2023-01-20T09:25:43.929Z,43.83
2023-01-20T09:28:12.006Z,44.40
2023-01-20T09:30:42.664Z,41.03
2023-01-20T09:33:11.064Z,47.23
2023-01-20T09:35:38.560Z,41.10
2023-01-20T09:38:24.247Z,50.17
2023-01-20T09:41:17.541Z,46.63
2023-01-20T09:43:55.362Z,42.77
2023-01-20T09:46:30.297Z,47.73
2023-01-20T09:49:23.223Z,48.53
2023-01-20T09:52:15.308Z,41.20
2023-01-20T09:54:46.273Z,39.73
2023-01-20T09:57:14.293Z,40.42
2023-01-20T09:59:45.313Z,37.20
2023-01-20T10:02:18.977Z,40.00
2023-01-20T10:04:49.056Z,39.40
2023-01-20T10:07:24.044Z,41.73
2023-01-20T10:09:55.714Z,35.77
2023-01-20T10:12:28.450Z,28.13
2023-01-20T10:15:01.451Z,39.77
2023-01-20T10:17:33.162Z,27.30
2023-01-20T10:20:04.585Z,37.30
2023-01-20T10:22:33.457Z,31.37
2023-01-20T10:25:05.451Z,31.30
2023-01-20T10:27:34.534Z,28.50
2023-01-20T10:30:07.429Z,29.40
2023-01-20T10:32:38.420Z,29.37
2023-01-20T10:35:15.247Z,33.07
2023-01-20T10:37:43.151Z,31.23
2023-01-20T10:40:18.385Z,26.10
2023-01-20T10:42:49.120Z,27.17
2023-01-20T10:45:21.339Z,29.27
2023-01-20T10:47:56.384Z,20.63
2023-01-20T10:50:35.972Z,28.23
2023-01-20T10:53:25.094Z,27.77
2023-01-20T10:56:03.647Z,26.70
2023-01-20T10:58:32.326Z,27.93
2023-01-20T11:01:03.459Z,26.67
2023-01-20T11:03:36.136Z,24.57
2023-01-20T11:06:04.565Z,21.63
2023-01-20T11:08:32.079Z,22.77
2023-01-20T11:11:01.007Z,23.70
2023-01-20T11:13:28.609Z,20.97
2023-01-20T11:15:58.171Z,21.27
2023-01-20T11:18:28.831Z,15.20
2023-01-20T11:21:00.453Z,19.63
2023-01-20T11:23:35.663Z,17.67
2023-01-20T11:26:09.909Z,21.00
2023-01-20T11:28:49.854Z,16.10
2023-01-20T11:31:17.825Z,18.60
2023-01-20T11:33:59.568Z,17.10
2023-01-20T11:36:28.477Z,16.63
2023-01-20T11:38:57.241Z,15.70
2023-01-20T11:41:26.640Z,19.83
2023-01-20T11:43:57.259Z,15.10
2023-01-20T11:46:28.079Z,19.63
2023-01-20T11:49:17.301Z,16.30
2023-01-20T11:51:48.862Z,13.17
2023-01-20T11:54:19.352Z,16.40
2023-01-20T11:56:48.536Z,15.80
2023-01-20T11:59:26.925Z,16.30
2023-01-20T12:02:01.661Z,15.07
2023-01-20T12:04:56.350Z,15.47
2023-01-20T12:07:27.960Z,17.57
2023-01-20T12:09:59.175Z,17.00
2023-01-20T12:12:32.962Z,13.97
2023-01-20T12:15:03.549Z,12.23
2023-01-20T12:17:41.116Z,11.00
2023-01-20T12:20:15.559Z,13.60
2023-01-20T12:22:51.311Z,16.10
2023-01-20T12:25:22.148Z,11.80
2023-01-20T12:27:52.292Z,13.00
2023-01-20T12:30:38.508Z,15.03
2023-01-20T12:33:06.525Z,17.33
2023-01-20T12:35:42.216Z,11.53
2023-01-20T12:38:19.765Z,14.17
2023-01-20T12:40:50.023Z,11.90
2023-01-20T12:43:28.916Z,13.30
2023-01-20T12:46:18.599Z,24.10
2023-01-20T12:48:56.397Z,28.57
2023-01-20T12:51:33.841Z,26.77
2023-01-20T12:54:15.192Z,28.47
2023-01-20T12:56:49.497Z,25.67
2023-01-20T12:59:22.747Z,23.70
2023-01-20T13:02:06.646Z,23.83
2023-01-20T13:05:20.792Z,18.70
2023-01-20T13:07:50.963Z,25.03
2023-01-20T13:10:34.191Z,17.93
2023-01-20T13:13:05.133Z,18.23
2023-01-20T13:15:36.397Z,18.23
2023-01-20T13:18:25.217Z,13.80
2023-01-20T13:20:53.737Z,17.50
2023-01-20T13:23:24.085Z,13.70
2023-01-20T13:25:53.448Z,18.33
2023-01-20T13:28:22.910Z,14.73
2023-01-20T13:30:53.901Z,13.97
2023-01-20T13:33:34.392Z,13.63
2023-01-20T13:36:02.623Z,14.67
2023-01-20T13:38:33.133Z,20.37
2023-01-20T13:41:05.905Z,12.63
2023-01-20T13:43:38.584Z,12.30
2023-01-20T13:46:38.245Z,11.67
2023-01-20T13:49:14.962Z,15.87
2023-01-20T13:51:48.051Z,13.13
2023-01-20T13:54:44.216Z,14.87
2023-01-20T13:57:36.666Z,20.83
2023-01-20T14:00:16.622Z,15.53
2023-01-20T14:02:44.317Z,13.70
2023-01-20T14:05:36.068Z,15.53
2023-01-20T14:08:03.753Z,13.30
2023-01-20T14:10:31.295Z,12.50
2023-01-20T14:13:00.246Z,12.87
2023-01-20T14:15:32.076Z,15.00
2023-01-20T14:18:00.748Z,16.60
2023-01-20T14:20:29.503Z,19.17
2023-01-20T14:22:57.778Z,15.53
2023-01-20T14:25:26.845Z,13.60
2023-01-20T14:27:55.729Z,14.10
2023-01-20T14:30:27.062Z,15.73
2023-01-20T14:32:54.843Z,16.40
2023-01-20T14:35:27.393Z,13.30
2023-01-20T14:37:55.275Z,17.53
2023-01-20T14:40:26.432Z,14.20
2023-01-20T14:42:58.962Z,13.47
2023-01-20T14:45:29.703Z,15.03
2023-01-20T14:47:58.158Z,13.60
2023-01-20T14:50:26.132Z,13.60
2023-01-20T14:52:53.821Z,18.60
2023-01-20T14:55:35.459Z,14.37
2023-01-20T14:58:08.409Z,13.20
2023-01-20T15:00:43.711Z,13.40
2023-01-20T15:03:15.420Z,14.07
2023-01-20T15:05:53.307Z,14.57
2023-01-20T15:08:26.270Z,15.50
2023-01-20T15:11:21.580Z,17.43
2023-01-20T15:14:13.162Z,11.60
2023-01-20T15:16:50.245Z,11.70
2023-01-20T15:19:38.786Z,16.57
2023-01-20T15:22:18.872Z,15.43
2023-01-20T15:24:47.505Z,14.27
2023-01-20T15:27:30.546Z,15.33
2023-01-20T15:30:20.846Z,13.60
2023-01-20T15:32:51.510Z,14.13
2023-01-20T15:35:22.852Z,10.00
2023-01-20T15:37:51.162Z,10.90
2023-01-20T15:40:20.513Z,12.23
2023-01-20T15:42:48.404Z,13.30
2023-01-20T15:45:16.734Z,9.70
2023-01-20T15:47:45.083Z,11.03
2023-01-20T15:50:16.486Z,9.80
2023-01-20T15:52:44.755Z,9.57
2023-01-20T15:55:13.530Z,9.27
2023-01-20T15:57:41.271Z,12.00
2023-01-20T16:00:17.144Z,11.03
2023-01-20T16:02:44.853Z,9.37
2023-01-20T16:05:15.739Z,9.67
2023-01-20T16:07:47.441Z,9.03
2023-01-20T16:10:17.247Z,9.77
2023-01-20T16:12:45.144Z,10.50
2023-01-20T16:15:17.558Z,7.87
2023-01-20T16:17:45.059Z,8.87
2023-01-20T16:20:20.190Z,10.90
2023-01-20T16:22:49.168Z,9.80
2023-01-20T16:25:17.198Z,16.73
2023-01-20T16:27:45.007Z,8.37
2023-01-20T16:30:16.105Z,10.67
2023-01-20T16:32:46.056Z,10.20
2023-01-20T16:35:14.119Z,14.33
2023-01-20T16:37:42.307Z,17.40
2023-01-20T16:40:13.301Z,14.07
2023-01-20T16:42:41.076Z,17.37
2023-01-20T16:45:20.212Z,16.50
2023-01-20T16:47:47.844Z,13.57
2023-01-20T16:50:15.765Z,14.37
2023-01-20T16:52:43.349Z,12.50
2023-01-20T16:55:13.563Z,13.50
2023-01-20T16:57:41.313Z,18.90
2023-01-20T17:00:10.121Z,18.17
2023-01-20T17:02:38.967Z,10.37
2023-01-20T17:05:07.853Z,14.17
2023-01-20T17:07:35.908Z,12.83
2023-01-20T17:10:03.472Z,13.00
2023-01-20T17:12:32.706Z,10.50
2023-01-20T17:15:00.547Z,12.80
2023-01-20T17:17:28.039Z,13.87
2023-01-20T17:19:55.521Z,10.97
2023-01-20T17:22:23.004Z,7.10
2023-01-20T17:24:50.486Z,9.47
2023-01-20T17:27:17.990Z,14.77
2023-01-20T17:29:46.830Z,14.13
2023-01-20T17:32:15.956Z,10.97
2023-01-20T17:34:43.408Z,14.73
2023-01-20T17:37:10.850Z,11.53
2023-01-20T17:39:38.324Z,13.33
2023-01-20T17:42:05.859Z,13.50
2023-01-20T17:44:33.340Z,14.87
2023-01-20T17:47:02.140Z,11.80
2023-01-20T17:49:29.584Z,19.17
2023-01-20T17:51:57.074Z,22.33
2023-01-20T17:54:24.549Z,17.30
2023-01-20T17:56:52.006Z,12.73
2023-01-20T17:59:19.462Z,18.63
2023-01-20T18:01:46.922Z,14.90
2023-01-20T18:04:16.029Z,13.30
2023-01-20T18:06:43.513Z,12.40
2023-01-20T18:09:13.829Z,15.73
2023-01-20T18:11:43.456Z,15.90
2023-01-20T18:14:11.079Z,14.30
2023-01-20T18:16:40.219Z,13.50
2023-01-20T18:19:08.136Z,18.93
2023-01-20T18:21:38.094Z,14.00
2023-01-20T18:24:08.177Z,10.50
2023-01-20T18:26:37.178Z,11.53
2023-01-20T18:29:06.628Z,12.10
2023-01-20T18:31:35.267Z,12.90
2023-01-20T18:34:04.979Z,11.67
2023-01-20T18:36:34.162Z,13.63
2023-01-20T18:39:05.615Z,14.60
2023-01-20T18:41:37.354Z,12.03
2023-01-20T18:44:06.151Z,14.93
2023-01-20T18:46:34.191Z,14.53
2023-01-20T18:49:02.123Z,14.90
2023-01-20T18:51:31.285Z,13.20
2023-01-20T18:54:00.931Z,20.50
2023-01-20T18:56:30.740Z,14.23
2023-01-20T18:58:58.470Z,13.60
2023-01-20T19:01:27.907Z,11.30
2023-01-20T19:03:56.145Z,17.07
2023-01-20T19:06:25.579Z,25.00
2023-01-20T19:08:53.374Z,20.00
2023-01-20T19:11:23.752Z,27.37
2023-01-20T19:13:53.633Z,20.43
2023-01-20T19:16:23.975Z,20.20
2023-01-20T19:18:53.101Z,16.53
2023-01-20T19:21:20.756Z,16.63
2023-01-20T19:23:49.595Z,13.10
2023-01-20T19:26:18.972Z,14.70
2023-01-20T19:28:47.450Z,14.47
2023-01-20T19:31:24.531Z,13.57
2023-01-20T19:33:59.435Z,13.67
2023-01-20T19:36:28.879Z,16.73
2023-01-20T19:39:04.747Z,12.80
2023-01-20T19:41:40.805Z,16.17
2023-01-20T19:44:09.043Z,15.70
2023-01-20T19:46:39.756Z,19.60
2023-01-20T19:49:07.993Z,16.50
2023-01-20T19:51:37.189Z,16.93
2023-01-20T19:54:05.916Z,19.50
2023-01-20T19:56:39.999Z,18.33
2023-01-20T19:59:10.287Z,19.73
2023-01-20T20:01:39.937Z,20.40
2023-01-20T20:04:13.448Z,22.17
2023-01-20T20:06:48.448Z,22.17
2023-01-20T20:09:28.097Z,20.90
2023-01-20T20:12:06.006Z,22.83
2023-01-20T20:14:35.665Z,18.00
2023-01-20T20:17:05.067Z,15.23
2023-01-20T20:19:35.620Z,17.37
2023-01-20T20:22:03.273Z,15.97
2023-01-20T20:24:32.189Z,13.70
2023-01-20T20:26:59.886Z,18.70
2023-01-20T20:29:29.231Z,22.87
2023-01-20T20:31:57.379Z,12.40
2023-01-20T20:34:31.265Z,11.67
2023-01-20T20:37:04.139Z,15.97
2023-01-20T20:39:35.132Z,13.70
2023-01-20T20:42:03.054Z,13.87
2023-01-20T20:44:40.796Z,12.33
2023-01-20T20:47:08.575Z,15.87
2023-01-20T20:49:40.087Z,17.60
2023-01-20T20:52:08.818Z,12.43
2023-01-20T20:54:36.553Z,14.70
2023-01-20T20:57:07.979Z,15.70
2023-01-20T20:59:37.626Z,15.47
2023-01-20T21:02:14.987Z,13.83
2023-01-20T21:04:43.936Z,15.50
2023-01-20T21:07:12.036Z,10.73
2023-01-20T21:09:39.694Z,14.20
2023-01-20T21:12:09.990Z,12.13
2023-01-20T21:14:37.594Z,10.27
2023-01-20T21:17:09.346Z,14.03
2023-01-20T21:19:37.200Z,9.77
2023-01-20T21:22:09.154Z,10.50
2023-01-20T21:24:36.695Z,12.83
2023-01-20T21:27:07.962Z,12.50
2023-01-20T21:29:36.052Z,10.60
2023-01-20T21:32:06.502Z,8.80
2023-01-20T21:34:37.039Z,12.80
2023-01-20T21:37:07.283Z,12.23
2023-01-20T21:39:35.345Z,13.20
2023-01-20T21:42:06.089Z,14.93
2023-01-20T21:44:32.825Z,13.80
2023-01-20T21:47:01.460Z,17.37
2023-01-20T21:49:46.909Z,15.17
2023-01-20T21:52:34.536Z,17.63
2023-01-20T21:55:02.220Z,17.27
2023-01-20T21:57:31.483Z,20.10
2023-01-20T21:59:59.191Z,22.50
2023-01-20T22:02:27.323Z,20.23
2023-01-20T22:04:55.365Z,24.70
2023-01-20T22:07:24.829Z,21.40
2023-01-20T22:09:52.401Z,20.07
2023-01-20T22:12:20.039Z,20.17
2023-01-20T22:14:47.633Z,22.80
2023-01-20T22:17:15.403Z,20.23
2023-01-20T22:19:43.805Z,23.07
2023-01-20T22:22:13.484Z,19.47
2023-01-20T22:24:43.963Z,20.80
2023-01-20T22:27:11.527Z,18.83
2023-01-20T22:29:39.056Z,26.10
2023-01-20T22:32:06.628Z,19.40
2023-01-20T22:34:34.244Z,19.80
2023-01-20T22:37:01.817Z,22.77
2023-01-20T22:39:29.649Z,25.67
2023-01-20T22:41:58.585Z,21.03
2023-01-20T22:44:26.239Z,17.43
2023-01-20T22:46:53.822Z,25.07
2023-01-20T22:49:21.360Z,20.00
2023-01-20T22:51:48.862Z,21.50
2023-01-20T22:54:16.450Z,17.17
2023-01-20T22:56:44.003Z,16.90
2023-01-20T22:59:13.472Z,19.93
2023-01-20T23:01:41.140Z,25.20
2023-01-20T23:04:08.707Z,23.97
2023-01-20T23:06:37.196Z,21.20
2023-01-20T23:09:07.378Z,20.92
2023-01-20T23:11:36.282Z,18.93
2023-01-20T23:14:04.005Z,15.57
2023-01-20T23:16:33.007Z,19.60
2023-01-20T23:19:00.577Z,18.80
2023-01-20T23:21:28.095Z,21.07
2023-01-20T23:23:55.981Z,20.13
2023-01-20T23:26:25.524Z,19.73
2023-01-20T23:28:54.333Z,19.77
2023-01-20T23:31:22.902Z,20.20
2023-01-20T23:33:52.026Z,20.57
2023-01-20T23:36:20.945Z,21.50
2023-01-20T23:38:48.650Z,21.93
2023-01-20T23:41:16.894Z,19.00
2023-01-20T23:43:44.569Z,21.47
2023-01-20T23:46:12.231Z,18.37
2023-01-20T23:48:40.186Z,21.50
2023-01-20T23:51:09.114Z,19.90
2023-01-20T23:53:41.297Z,24.43
2023-01-20T23:56:12.165Z,19.87
2023-01-20T23:58:40.412Z,22.83
